createdAt,value
2023-01-29T00:02:26.040Z,-1.10
2023-01-29T00:05:53.533Z,-1.19
2023-01-29T00:09:21.396Z,-1.26
2023-01-29T00:12:48.461Z,-1.31
2023-01-29T00:16:15.948Z,-1.37
2023-01-29T00:19:42.888Z,-1.44
2023-01-29T00:23:09.844Z,-1.51
2023-01-29T00:26:37.517Z,-1.58
2023-01-29T00:33:44.030Z,-1.73
2023-01-29T00:37:12.202Z,-1.81
2023-01-29T00:40:59.213Z,-1.86
2023-01-29T00:44:44.149Z,-1.92
2023-01-29T00:48:11.282Z,-2.00
2023-01-29T00:51:39.776Z,-2.05
2023-01-29T00:55:10.234Z,-2.11
2023-01-29T00:58:37.683Z,-2.17
2023-01-29T01:02:22.248Z,-2.22
2023-01-29T01:05:49.624Z,-2.27
2023-01-29T01:09:37.379Z,-2.29
2023-01-29T01:13:06.885Z,-2.33
2023-01-29T01:16:33.892Z,-2.35
2023-01-29T01:20:01.114Z,-2.37
2023-01-29T01:23:28.718Z,-2.41
2023-01-29T01:26:55.828Z,-2.47
2023-01-29T01:30:24.387Z,-2.53
2023-01-29T01:33:54.489Z,-2.58
2023-01-29T01:37:21.598Z,-2.64
2023-01-29T01:40:51.691Z,-2.69
2023-01-29T01:44:56.450Z,-2.72
2023-01-29T01:48:27.745Z,-2.76
2023-01-29T01:51:55.488Z,-2.76
2023-01-29T01:55:26.727Z,-2.75
2023-01-29T01:58:56.463Z,-2.74
2023-01-29T02:02:42.203Z,-2.74
2023-01-29T02:06:28.207Z,-2.74
2023-01-29T02:10:01.806Z,-2.74
2023-01-29T02:13:29.684Z,-2.74
2023-01-29T02:16:56.806Z,-2.72
2023-01-29T02:20:27.901Z,-2.72
2023-01-29T02:24:33.338Z,-2.72
2023-01-29T02:28:21.900Z,-2.70
2023-01-29T02:31:58.109Z,-2.65
2023-01-29T02:35:32.029Z,-2.58
2023-01-29T02:39:05.753Z,-2.50
2023-01-29T02:42:38.016Z,-2.42
2023-01-29T02:46:12.682Z,-2.34
2023-01-29T02:49:46.185Z,-2.25
2023-01-29T02:53:17.424Z,-2.17
2023-01-29T02:56:50.230Z,-2.09
2023-01-29T03:00:22.196Z,-2.03
2023-01-29T03:03:54.798Z,-1.97
2023-01-29T03:07:40.505Z,-1.92
2023-01-29T03:11:13.640Z,-1.85
2023-01-29T03:14:57.027Z,-1.79
2023-01-29T03:18:27.864Z,-1.73
2023-01-29T03:22:02.283Z,-1.68
2023-01-29T03:25:49.751Z,-1.62
2023-01-29T03:29:34.941Z,-1.58
2023-01-29T03:33:05.753Z,-1.54
2023-01-29T03:36:39.880Z,-1.52
2023-01-29T03:40:10.346Z,-1.49
2023-01-29T03:43:48.640Z,-1.47
2023-01-29T03:47:23.920Z,-1.46
2023-01-29T03:50:59.042Z,-1.44
2023-01-29T03:54:35.176Z,-1.42
2023-01-29T03:58:07.040Z,-1.40
2023-01-29T04:01:41.755Z,-1.39
2023-01-29T04:05:16.162Z,-1.38
2023-01-29T04:08:58.775Z,-1.37
2023-01-29T04:12:30.933Z,-1.35
2023-01-29T04:16:00.365Z,-1.34
2023-01-29T04:19:47.902Z,-1.33
2023-01-29T04:23:25.731Z,-1.32
2023-01-29T04:27:01.649Z,-1.31
2023-01-29T04:30:42.682Z,-1.29
2023-01-29T04:34:21.876Z,-1.29
2023-01-29T04:37:58.111Z,-1.28
2023-01-29T04:41:31.584Z,-1.27
2023-01-29T04:45:07.400Z,-1.27
2023-01-29T04:48:44.129Z,-1.26
2023-01-29T04:52:18.217Z,-1.24
2023-01-29T04:55:48.566Z,-1.25
2023-01-29T04:59:19.047Z,-1.26
2023-01-29T05:02:50.007Z,-1.27
2023-01-29T05:06:19.643Z,-1.27
2023-01-29T05:09:46.298Z,-1.26
2023-01-29T05:13:15.556Z,-1.26
2023-01-29T05:16:47.426Z,-1.27
2023-01-29T05:20:16.163Z,-1.26
2023-01-29T05:23:59.572Z,-1.25
2023-01-29T05:27:51.488Z,-1.24
2023-01-29T05:31:18.618Z,-1.21
2023-01-29T05:34:45.645Z,-1.19
2023-01-29T05:38:13.075Z,-1.18
2023-01-29T05:41:40.138Z,-1.18
2023-01-29T05:45:09.287Z,-1.16
2023-01-29T05:48:36.201Z,-1.15
2023-01-29T05:52:03.466Z,-1.14
2023-01-29T05:55:30.711Z,-1.13
2023-01-29T05:58:58.927Z,-1.12
2023-01-29T06:02:26.437Z,-1.11
2023-01-29T06:05:53.742Z,-1.10
2023-01-29T06:09:20.647Z,-1.09
2023-01-29T06:12:47.685Z,-1.08
2023-01-29T06:16:17.534Z,-1.07
2023-01-29T06:19:44.603Z,-1.06
2023-01-29T06:23:11.693Z,-1.08
2023-01-29T06:26:39.067Z,-1.12
2023-01-29T06:30:07.491Z,-1.15
2023-01-29T06:33:34.749Z,-1.18
2023-01-29T06:37:01.919Z,-1.22
2023-01-29T06:40:29.171Z,-1.24
2023-01-29T06:43:56.168Z,-1.26
2023-01-29T06:47:23.349Z,-1.28
2023-01-29T06:50:50.717Z,-1.28
2023-01-29T06:54:17.826Z,-1.28
2023-01-29T06:57:44.802Z,-1.26
2023-01-29T07:01:33.058Z,-1.25
2023-01-29T07:05:01.696Z,-1.23
2023-01-29T07:08:29.974Z,-1.20
2023-01-29T07:11:57.085Z,-1.17
2023-01-29T07:15:24.424Z,-1.12
2023-01-29T07:18:51.535Z,-1.06
2023-01-29T07:22:18.854Z,-1.00
2023-01-29T07:25:46.067Z,-0.97
2023-01-29T07:29:13.101Z,-0.95
2023-01-29T07:32:40.486Z,-0.92
2023-01-29T07:36:11.066Z,-0.88
2023-01-29T07:39:38.212Z,-0.85
2023-01-29T07:43:07.071Z,-0.82
2023-01-29T07:46:34.282Z,-0.80
2023-01-29T07:50:01.633Z,-0.77
2023-01-29T07:53:29.709Z,-0.74
2023-01-29T07:56:56.686Z,-0.68
2023-01-29T08:00:25.152Z,-0.65
2023-01-29T08:03:52.835Z,-0.63
2023-01-29T08:07:19.863Z,-0.60
2023-01-29T08:10:46.875Z,-0.55
2023-01-29T08:14:13.974Z,-0.51
2023-01-29T08:17:56.122Z,-0.45
2023-01-29T08:21:24.476Z,-0.38
2023-01-29T08:24:59.864Z,-0.32
2023-01-29T08:28:27.600Z,-0.27
2023-01-29T08:31:54.748Z,-0.21
2023-01-29T08:35:22.369Z,-0.15
2023-01-29T08:38:49.397Z,-0.13
2023-01-29T08:42:16.427Z,-0.12
2023-01-29T08:45:44.931Z,-0.07
2023-01-29T08:49:13.201Z,-0.04
2023-01-29T08:52:40.294Z,0.01
2023-01-29T08:56:08.554Z,0.05
2023-01-29T08:59:35.621Z,0.06
2023-01-29T09:03:03.958Z,0.07
2023-01-29T09:06:31.274Z,0.07
2023-01-29T09:09:58.333Z,0.08
2023-01-29T09:13:25.564Z,0.10
2023-01-29T09:16:54.965Z,0.11
2023-01-29T09:20:22.661Z,0.12
2023-01-29T09:23:49.663Z,0.13
2023-01-29T09:27:16.727Z,0.12
2023-01-29T09:30:43.804Z,0.14
2023-01-29T09:34:11.009Z,0.14
2023-01-29T09:37:38.075Z,0.13
2023-01-29T09:41:26.942Z,0.12
2023-01-29T09:45:04.741Z,0.13
2023-01-29T09:48:36.788Z,0.15
2023-01-29T09:52:11.149Z,0.19
2023-01-29T09:55:45.524Z,0.20
2023-01-29T09:59:15.364Z,0.20
2023-01-29T10:02:55.708Z,0.20
2023-01-29T10:06:36.173Z,0.20
2023-01-29T10:10:28.476Z,0.20
2023-01-29T10:14:06.865Z,0.22
2023-01-29T10:17:50.597Z,0.25
2023-01-29T10:21:53.802Z,0.26
2023-01-29T10:25:23.695Z,0.28
2023-01-29T10:28:53.751Z,0.29
2023-01-29T10:32:24.884Z,0.32
2023-01-29T10:35:56.753Z,0.37
2023-01-29T10:39:28.428Z,0.40
2023-01-29T10:43:05.285Z,0.43
2023-01-29T10:46:47.274Z,0.44
2023-01-29T10:50:26.921Z,0.47
2023-01-29T10:54:10.317Z,0.53
2023-01-29T10:57:55.015Z,0.55
2023-01-29T11:01:21.997Z,0.57
2023-01-29T11:04:49.179Z,0.57
2023-01-29T11:08:21.252Z,0.59
2023-01-29T11:11:54.026Z,0.61
2023-01-29T11:15:25.709Z,0.62
2023-01-29T11:18:56.127Z,0.62
2023-01-29T11:22:24.767Z,0.61
2023-01-29T11:25:56.315Z,0.61
2023-01-29T11:29:44.884Z,0.58
2023-01-29T11:33:20.770Z,0.57
2023-01-29T11:36:47.884Z,0.58
2023-01-29T11:40:40.838Z,0.61
2023-01-29T11:44:21.358Z,0.67
2023-01-29T11:47:54.036Z,0.73
2023-01-29T11:51:27.231Z,0.78
2023-01-29T11:54:59.639Z,0.83
2023-01-29T11:58:32.426Z,0.87
2023-01-29T12:02:11.753Z,0.92
2023-01-29T12:05:39.989Z,0.92
2023-01-29T12:09:17.557Z,0.91
2023-01-29T12:12:45.697Z,0.92
2023-01-29T12:16:24.823Z,0.90
2023-01-29T12:19:57.662Z,0.91
2023-01-29T12:23:36.545Z,0.90
2023-01-29T12:27:13.635Z,0.91
2023-01-29T12:30:49.368Z,0.94
2023-01-29T12:34:23.805Z,0.95
2023-01-29T12:38:01.041Z,0.92
2023-01-29T12:41:35.489Z,0.88
2023-01-29T12:45:05.277Z,0.84
2023-01-29T12:48:35.257Z,0.82
2023-01-29T12:52:08.740Z,0.78
2023-01-29T12:55:43.119Z,0.74
2023-01-29T12:59:18.832Z,0.68
2023-01-29T13:02:55.011Z,0.64
2023-01-29T13:06:36.435Z,0.60
2023-01-29T13:10:11.932Z,0.58
2023-01-29T13:13:44.749Z,0.60
2023-01-29T13:17:16.747Z,0.61
2023-01-29T13:20:44.749Z,0.62
2023-01-29T13:24:16.383Z,0.65
2023-01-29T13:27:48.013Z,0.69
2023-01-29T13:31:37.743Z,0.70
2023-01-29T13:35:13.306Z,0.69
2023-01-29T13:38:42.028Z,0.67
2023-01-29T13:42:21.101Z,0.65
2023-01-29T13:45:48.895Z,0.63
2023-01-29T13:49:30.392Z,0.63
2023-01-29T13:53:01.900Z,0.62
2023-01-29T13:56:44.274Z,0.61
2023-01-29T14:01:01.759Z,0.62
2023-01-29T14:04:32.061Z,0.61
2023-01-29T14:07:59.980Z,0.59
2023-01-29T14:11:38.523Z,0.56
2023-01-29T14:15:23.048Z,0.54
2023-01-29T14:18:55.647Z,0.51
2023-01-29T14:22:27.347Z,0.48
2023-01-29T14:25:54.861Z,0.45
2023-01-29T14:29:34.329Z,0.44
2023-01-29T14:33:03.803Z,0.43
2023-01-29T14:36:39.772Z,0.40
2023-01-29T14:40:24.821Z,0.38
2023-01-29T14:43:51.940Z,0.35
2023-01-29T14:47:43.522Z,0.32
2023-01-29T14:51:13.977Z,0.30
2023-01-29T14:54:44.288Z,0.29
2023-01-29T14:58:31.195Z,0.26
2023-01-29T15:02:01.715Z,0.25
2023-01-29T15:05:33.657Z,0.24
2023-01-29T15:09:11.208Z,0.23
2023-01-29T15:12:49.744Z,0.22
2023-01-29T15:16:22.038Z,0.21
2023-01-29T15:19:51.012Z,0.21
2023-01-29T15:23:32.208Z,0.20
2023-01-29T15:27:00.805Z,0.20
2023-01-29T15:30:34.137Z,0.20
2023-01-29T15:34:07.647Z,0.20
2023-01-29T15:37:37.275Z,0.20
2023-01-29T15:41:17.415Z,0.21
2023-01-29T15:44:48.558Z,0.22
2023-01-29T15:48:20.105Z,0.23
2023-01-29T15:51:50.228Z,0.24
2023-01-29T15:55:20.178Z,0.25
2023-01-29T15:58:50.703Z,0.25
2023-01-29T16:02:37.598Z,0.28
2023-01-29T16:06:08.821Z,0.30
2023-01-29T16:09:37.953Z,0.31
2023-01-29T16:13:06.310Z,0.32
2023-01-29T16:16:33.788Z,0.32
2023-01-29T16:20:38.479Z,0.32
2023-01-29T16:24:11.853Z,0.32
2023-01-29T16:27:43.368Z,0.32
2023-01-29T16:31:11.368Z,0.33
2023-01-29T16:34:41.836Z,0.32
2023-01-29T16:38:20.277Z,0.31
2023-01-29T16:42:03.736Z,0.30
2023-01-29T16:45:31.439Z,0.28
2023-01-29T16:48:58.426Z,0.28
2023-01-29T16:52:28.763Z,0.28
2023-01-29T16:56:03.777Z,0.29
2023-01-29T16:59:36.718Z,0.30
2023-01-29T17:03:08.361Z,0.30
2023-01-29T17:06:36.550Z,0.31
2023-01-29T17:10:06.697Z,0.31
2023-01-29T17:13:39.654Z,0.31
2023-01-29T17:17:15.561Z,0.32
2023-01-29T17:20:42.695Z,0.32
2023-01-29T17:24:11.536Z,0.33
2023-01-29T17:27:45.627Z,0.34
2023-01-29T17:31:13.405Z,0.33
2023-01-29T17:34:40.723Z,0.32
2023-01-29T17:38:24.156Z,0.32
2023-01-29T17:41:55.117Z,0.31
2023-01-29T17:45:22.365Z,0.30
2023-01-29T17:48:50.348Z,0.29
2023-01-29T17:52:17.780Z,0.29
2023-01-29T17:55:46.096Z,0.30
2023-01-29T17:59:19.704Z,0.31
2023-01-29T18:02:47.285Z,0.32
2023-01-29T18:06:24.171Z,0.32
2023-01-29T18:09:51.556Z,0.33
2023-01-29T18:13:18.660Z,0.35
2023-01-29T18:16:49.514Z,0.36
2023-01-29T18:20:22.658Z,0.38
2023-01-29T18:23:49.835Z,0.38
2023-01-29T18:27:17.354Z,0.37
2023-01-29T18:30:47.048Z,0.36
2023-01-29T18:34:14.492Z,0.36
2023-01-29T18:37:41.504Z,0.38
2023-01-29T18:41:11.342Z,0.38
2023-01-29T18:44:38.689Z,0.38
2023-01-29T18:48:06.762Z,0.38
2023-01-29T18:51:34.318Z,0.39
2023-01-29T18:55:02.549Z,0.40
2023-01-29T18:58:35.811Z,0.40
2023-01-29T19:02:04.553Z,0.40
2023-01-29T19:05:35.960Z,0.41
2023-01-29T19:09:03.572Z,0.41
2023-01-29T19:12:30.908Z,0.42
2023-01-29T19:15:58.547Z,0.43
2023-01-29T19:19:27.036Z,0.42
2023-01-29T19:22:54.855Z,0.40
2023-01-29T19:26:23.233Z,0.39
2023-01-29T19:29:51.240Z,0.38
2023-01-29T19:33:19.247Z,0.37
2023-01-29T19:36:47.305Z,0.37
2023-01-29T19:40:16.035Z,0.36
2023-01-29T19:43:43.694Z,0.36
2023-01-29T19:47:11.697Z,0.33
2023-01-29T19:50:39.153Z,0.32
2023-01-29T19:54:07.321Z,0.30
2023-01-29T19:57:35.302Z,0.29
2023-01-29T20:01:06.777Z,0.28
2023-01-29T20:04:34.866Z,0.28
2023-01-29T20:08:02.937Z,0.28
2023-01-29T20:11:31.073Z,0.28
2023-01-29T20:14:59.316Z,0.27
2023-01-29T20:18:27.244Z,0.26
2023-01-29T20:21:55.267Z,0.26
2023-01-29T20:25:23.822Z,0.25
2023-01-29T20:28:51.963Z,0.22
2023-01-29T20:32:20.712Z,0.20
2023-01-29T20:35:54.255Z,0.18
2023-01-29T20:39:22.253Z,0.16
2023-01-29T20:42:50.267Z,0.14
2023-01-29T20:46:19.344Z,0.13
2023-01-29T20:49:47.939Z,0.13
2023-01-29T20:53:16.407Z,0.14
2023-01-29T20:56:46.735Z,0.14
2023-01-29T21:00:18.689Z,0.15
2023-01-29T21:03:47.711Z,0.15
2023-01-29T21:07:16.367Z,0.15
2023-01-29T21:10:46.532Z,0.16
2023-01-29T21:14:14.237Z,0.15
2023-01-29T21:17:41.660Z,0.16
2023-01-29T21:21:08.872Z,0.18
2023-01-29T21:24:36.402Z,0.19
2023-01-29T21:28:04.508Z,0.19
2023-01-29T21:31:31.694Z,0.20
2023-01-29T21:34:59.297Z,0.19
2023-01-29T21:38:29.374Z,0.18
2023-01-29T21:42:14.480Z,0.17
2023-01-29T21:45:42.763Z,0.16
2023-01-29T21:49:10.035Z,0.14
2023-01-29T21:52:37.036Z,0.11
2023-01-29T21:56:05.946Z,0.10
2023-01-29T21:59:33.560Z,0.08
2023-01-29T22:03:00.908Z,0.07
2023-01-29T22:06:28.482Z,0.06
2023-01-29T22:09:55.621Z,0.05
2023-01-29T22:13:23.067Z,0.03
2023-01-29T22:16:50.032Z,0.02
2023-01-29T22:20:17.902Z,0.01
2023-01-29T22:23:45.404Z,0.00
2023-01-29T22:27:12.482Z,-0.01
2023-01-29T22:30:39.884Z,-0.02
2023-01-29T22:34:07.210Z,-0.04
2023-01-29T22:37:34.314Z,-0.05
2023-01-29T22:41:02.695Z,-0.07
2023-01-29T22:44:30.211Z,-0.09
2023-01-29T22:48:07.228Z,-0.12
2023-01-29T22:51:35.444Z,-0.14
2023-01-29T22:55:02.588Z,-0.16
2023-01-29T22:58:29.997Z,-0.16
2023-01-29T23:01:57.303Z,-0.17
2023-01-29T23:05:33.301Z,-0.17
2023-01-29T23:09:00.311Z,-0.18
2023-01-29T23:12:27.581Z,-0.19
2023-01-29T23:16:01.792Z,-0.20
2023-01-29T23:19:30.202Z,-0.20
2023-01-29T23:22:57.228Z,-0.21
2023-01-29T23:26:41.916Z,-0.23
2023-01-29T23:30:11.452Z,-0.24
2023-01-29T23:33:38.952Z,-0.25
2023-01-29T23:37:06.412Z,-0.26
2023-01-29T23:40:33.396Z,-0.27
2023-01-29T23:44:00.456Z,-0.28
2023-01-29T23:47:27.591Z,-0.29
2023-01-29T23:50:54.527Z,-0.29
2023-01-29T23:54:21.673Z,-0.29
2023-01-29T23:57:49.010Z,-0.29
